sensor_id;sensor_type;location;lat;lon;timestamp;P1;durP1;ratioP1;P2;durP2;ratioP2
17648;SDS011;8943;51.110;-4.158;2022-11-14T00:00:05;15.27;;;9.87;;
17648;SDS011;8943;51.110;-4.158;2022-11-14T00:02:35;13.87;;;9.10;;
17648;SDS011;8943;51.110;-4.158;2022-11-14T00:05:05;13.57;;;8.90;;
17648;SDS011;8943;51.110;-4.158;2022-11-14T00:07:36;19.83;;;10.87;;
17648;SDS011;8943;51.110;-4.158;2022-11-14T00:10:05;16.00;;;9.60;;
17648;SDS011;8943;51.110;-4.158;2022-11-14T00:12:33;14.17;;;9.40;;
17648;SDS011;8943;51.110;-4.158;2022-11-14T00:15:02;16.07;;;9.43;;
17648;SDS011;8943;51.110;-4.158;2022-11-14T00:17:31;18.47;;;10.23;;
17648;SDS011;8943;51.110;-4.158;2022-11-14T00:20:00;18.63;;;10.97;;
17648;SDS011;8943;51.110;-4.158;2022-11-14T00:22:30;17.20;;;10.10;;
17648;SDS011;8943;51.110;-4.158;2022-11-14T00:25:27;20.20;;;10.03;;
17648;SDS011;8943;51.110;-4.158;2022-11-14T00:27:55;19.97;;;11.90;;
17648;SDS011;8943;51.110;-4.158;2022-11-14T00:30:25;16.73;;;9.70;;
17648;SDS011;8943;51.110;-4.158;2022-11-14T00:33:09;18.63;;;9.83;;
17648;SDS011;8943;51.110;-4.158;2022-11-14T00:36:03;15.97;;;10.97;;
17648;SDS011;8943;51.110;-4.158;2022-11-14T00:41:15;15.93;;;9.70;;
17648;SDS011;8943;51.110;-4.158;2022-11-14T00:43:43;20.23;;;9.67;;
17648;SDS011;8943;51.110;-4.158;2022-11-14T00:46:12;41.87;;;12.53;;
17648;SDS011;8943;51.110;-4.158;2022-11-14T00:48:40;16.57;;;10.13;;
17648;SDS011;8943;51.110;-4.158;2022-11-14T00:51:09;15.27;;;9.57;;
17648;SDS011;8943;51.110;-4.158;2022-11-14T00:53:38;15.03;;;9.40;;
17648;SDS011;8943;51.110;-4.158;2022-11-14T00:56:07;15.93;;;8.33;;
17648;SDS011;8943;51.110;-4.158;2022-11-14T00:58:36;15.03;;;9.10;;
17648;SDS011;8943;51.110;-4.158;2022-11-14T01:01:05;11.43;;;8.33;;
17648;SDS011;8943;51.110;-4.158;2022-11-14T01:03:35;15.73;;;8.57;;
17648;SDS011;8943;51.110;-4.158;2022-11-14T01:06:05;14.83;;;10.07;;
17648;SDS011;8943;51.110;-4.158;2022-11-14T01:08:36;14.07;;;9.77;;
17648;SDS011;8943;51.110;-4.158;2022-11-14T01:11:07;13.27;;;9.07;;
17648;SDS011;8943;51.110;-4.158;2022-11-14T01:13:39;19.10;;;9.10;;
17648;SDS011;8943;51.110;-4.158;2022-11-14T01:16:08;17.23;;;8.70;;
17648;SDS011;8943;51.110;-4.158;2022-11-14T01:18:38;15.43;;;7.97;;
17648;SDS011;8943;51.110;-4.158;2022-11-14T01:21:15;14.37;;;8.17;;
17648;SDS011;8943;51.110;-4.158;2022-11-14T01:23:44;11.50;;;7.63;;
17648;SDS011;8943;51.110;-4.158;2022-11-14T01:26:13;15.67;;;9.80;;
17648;SDS011;8943;51.110;-4.158;2022-11-14T01:28:43;16.37;;;9.63;;
17648;SDS011;8943;51.110;-4.158;2022-11-14T01:31:14;14.90;;;8.30;;
17648;SDS011;8943;51.110;-4.158;2022-11-14T01:34:12;15.70;;;7.50;;
17648;SDS011;8943;51.110;-4.158;2022-11-14T01:36:42;15.27;;;9.30;;
17648;SDS011;8943;51.110;-4.158;2022-11-14T01:39:31;12.97;;;7.77;;
17648;SDS011;8943;51.110;-4.158;2022-11-14T02:28:12;13.80;;;8.40;;
17648;SDS011;8943;51.110;-4.158;2022-11-14T03:12:28;14.67;;;7.90;;
17648;SDS011;8943;51.110;-4.158;2022-11-14T03:17:33;15.50;;;9.20;;
17648;SDS011;8943;51.110;-4.158;2022-11-14T03:22:46;15.47;;;8.13;;
17648;SDS011;8943;51.110;-4.158;2022-11-14T03:25:15;16.23;;;7.70;;
17648;SDS011;8943;51.110;-4.158;2022-11-14T03:27:45;51.73;;;11.70;;
17648;SDS011;8943;51.110;-4.158;2022-11-14T03:30:13;13.80;;;7.37;;
17648;SDS011;8943;51.110;-4.158;2022-11-14T03:32:42;9.90;;;6.67;;
17648;SDS011;8943;51.110;-4.158;2022-11-14T03:35:10;10.00;;;5.80;;
17648;SDS011;8943;51.110;-4.158;2022-11-14T03:37:41;12.50;;;6.10;;
17648;SDS011;8943;51.110;-4.158;2022-11-14T03:40:10;11.87;;;5.27;;
17648;SDS011;8943;51.110;-4.158;2022-11-14T03:42:39;6.90;;;5.30;;
17648;SDS011;8943;51.110;-4.158;2022-11-14T04:03:28;4.67;;;3.67;;
17648;SDS011;8943;51.110;-4.158;2022-11-14T04:31:28;7.43;;;3.93;;
17648;SDS011;8943;51.110;-4.158;2022-11-14T04:39:30;5.27;;;3.53;;
17648;SDS011;8943;51.110;-4.158;2022-11-14T04:41:59;6.93;;;3.70;;
17648;SDS011;8943;51.110;-4.158;2022-11-14T04:44:28;5.43;;;3.30;;
17648;SDS011;8943;51.110;-4.158;2022-11-14T04:46:58;7.13;;;3.43;;
17648;SDS011;8943;51.110;-4.158;2022-11-14T04:57:56;5.67;;;3.40;;
17648;SDS011;8943;51.110;-4.158;2022-11-14T05:00:25;5.70;;;3.00;;
17648;SDS011;8943;51.110;-4.158;2022-11-14T05:02:55;9.27;;;3.70;;
17648;SDS011;8943;51.110;-4.158;2022-11-14T05:10:47;7.47;;;3.57;;
17648;SDS011;8943;51.110;-4.158;2022-11-14T05:47:06;8.17;;;4.10;;
17648;SDS011;8943;51.110;-4.158;2022-11-14T05:49:34;8.93;;;4.17;;
17648;SDS011;8943;51.110;-4.158;2022-11-14T05:52:03;13.87;;;4.23;;
17648;SDS011;8943;51.110;-4.158;2022-11-14T05:57:08;8.17;;;4.90;;
17648;SDS011;8943;51.110;-4.158;2022-11-14T05:59:36;8.37;;;4.13;;
17648;SDS011;8943;51.110;-4.158;2022-11-14T06:02:07;9.90;;;4.67;;
17648;SDS011;8943;51.110;-4.158;2022-11-14T06:04:36;7.83;;;4.37;;
17648;SDS011;8943;51.110;-4.158;2022-11-14T06:07:06;7.97;;;4.63;;
17648;SDS011;8943;51.110;-4.158;2022-11-14T06:09:34;12.83;;;5.37;;
17648;SDS011;8943;51.110;-4.158;2022-11-14T06:12:03;9.57;;;4.63;;
17648;SDS011;8943;51.110;-4.158;2022-11-14T06:14:33;10.90;;;4.33;;
17648;SDS011;8943;51.110;-4.158;2022-11-14T06:17:01;8.67;;;4.57;;
17648;SDS011;8943;51.110;-4.158;2022-11-14T06:23:01;11.30;;;4.80;;
17648;SDS011;8943;51.110;-4.158;2022-11-14T06:25:33;6.87;;;4.50;;
17648;SDS011;8943;51.110;-4.158;2022-11-14T06:37:45;6.87;;;4.60;;
17648;SDS011;8943;51.110;-4.158;2022-11-14T06:40:14;12.73;;;4.53;;
17648;SDS011;8943;51.110;-4.158;2022-11-14T06:56:21;6.20;;;4.20;;
17648;SDS011;8943;51.110;-4.158;2022-11-14T06:58:50;8.77;;;4.33;;
17648;SDS011;8943;51.110;-4.158;2022-11-14T07:01:19;8.50;;;4.00;;
17648;SDS011;8943;51.110;-4.158;2022-11-14T07:03:49;8.30;;;3.87;;
17648;SDS011;8943;51.110;-4.158;2022-11-14T07:08:56;6.27;;;3.43;;
17648;SDS011;8943;51.110;-4.158;2022-11-14T07:11:27;5.40;;;2.93;;
17648;SDS011;8943;51.110;-4.158;2022-11-14T07:30:49;2.50;;;1.90;;
17648;SDS011;8943;51.110;-4.158;2022-11-14T07:47:02;4.03;;;1.37;;
17648;SDS011;8943;51.110;-4.158;2022-11-14T07:49:30;2.40;;;1.30;;
17648;SDS011;8943;51.110;-4.158;2022-11-14T07:52:00;3.23;;;1.43;;
17648;SDS011;8943;51.110;-4.158;2022-11-14T07:54:29;3.70;;;1.70;;
17648;SDS011;8943;51.110;-4.158;2022-11-14T07:56:57;4.53;;;1.60;;
17648;SDS011;8943;51.110;-4.158;2022-11-14T07:59:25;3.37;;;1.80;;
17648;SDS011;8943;51.110;-4.158;2022-11-14T08:01:53;1.57;;;1.23;;
17648;SDS011;8943;51.110;-4.158;2022-11-14T08:04:24;5.10;;;1.53;;
17648;SDS011;8943;51.110;-4.158;2022-11-14T08:06:54;6.83;;;1.80;;
17648;SDS011;8943;51.110;-4.158;2022-11-14T08:09:51;6.00;;;1.50;;
17648;SDS011;8943;51.110;-4.158;2022-11-14T08:12:19;4.47;;;1.10;;
17648;SDS011;8943;51.110;-4.158;2022-11-14T08:14:48;5.27;;;1.40;;
17648;SDS011;8943;51.110;-4.158;2022-11-14T08:17:17;4.83;;;1.20;;
17648;SDS011;8943;51.110;-4.158;2022-11-14T08:19:48;4.23;;;1.00;;
17648;SDS011;8943;51.110;-4.158;2022-11-14T08:22:16;5.17;;;0.83;;
17648;SDS011;8943;51.110;-4.158;2022-11-14T08:27:35;15.30;;;1.30;;
17648;SDS011;8943;51.110;-4.158;2022-11-14T08:30:44;7.93;;;1.00;;
17648;SDS011;8943;51.110;-4.158;2022-11-14T08:33:54;5.57;;;1.13;;
17648;SDS011;8943;51.110;-4.158;2022-11-14T08:39:56;1.07;;;0.50;;
17648;SDS011;8943;51.110;-4.158;2022-11-14T08:42:58;3.23;;;0.97;;
17648;SDS011;8943;51.110;-4.158;2022-11-14T08:45:48;5.40;;;1.27;;
17648;SDS011;8943;51.110;-4.158;2022-11-14T08:48:35;7.40;;;1.60;;
17648;SDS011;8943;51.110;-4.158;2022-11-14T08:51:30;5.70;;;1.50;;
17648;SDS011;8943;51.110;-4.158;2022-11-14T08:54:21;5.00;;;1.40;;
17648;SDS011;8943;51.110;-4.158;2022-11-14T08:56:55;2.10;;;0.67;;
17648;SDS011;8943;51.110;-4.158;2022-11-14T08:59:45;3.40;;;1.37;;
17648;SDS011;8943;51.110;-4.158;2022-11-14T09:05:17;8.50;;;1.00;;
17648;SDS011;8943;51.110;-4.158;2022-11-14T09:08:02;4.30;;;0.90;;
17648;SDS011;8943;51.110;-4.158;2022-11-14T09:10:44;4.50;;;1.00;;
17648;SDS011;8943;51.110;-4.158;2022-11-14T09:16:18;5.60;;;2.00;;
17648;SDS011;8943;51.110;-4.158;2022-11-14T09:19:07;10.37;;;1.37;;
17648;SDS011;8943;51.110;-4.158;2022-11-14T09:21:55;3.93;;;1.33;;
17648;SDS011;8943;51.110;-4.158;2022-11-14T09:24:26;4.47;;;1.17;;
17648;SDS011;8943;51.110;-4.158;2022-11-14T09:27:07;10.00;;;1.43;;
17648;SDS011;8943;51.110;-4.158;2022-11-14T09:29:54;4.27;;;0.90;;
17648;SDS011;8943;51.110;-4.158;2022-11-14T09:35:54;8.20;;;1.27;;
17648;SDS011;8943;51.110;-4.158;2022-11-14T09:38:34;12.17;;;1.60;;
17648;SDS011;8943;51.110;-4.158;2022-11-14T09:53:58;9.57;;;1.60;;
17648;SDS011;8943;51.110;-4.158;2022-11-14T09:56:33;5.97;;;1.20;;
17648;SDS011;8943;51.110;-4.158;2022-11-14T09:59:16;10.20;;;1.50;;
17648;SDS011;8943;51.110;-4.158;2022-11-14T10:01:54;6.93;;;1.23;;
17648;SDS011;8943;51.110;-4.158;2022-11-14T10:04:55;7.00;;;1.63;;
17648;SDS011;8943;51.110;-4.158;2022-11-14T10:07:42;5.53;;;1.03;;
17648;SDS011;8943;51.110;-4.158;2022-11-14T10:10:44;4.10;;;0.97;;
17648;SDS011;8943;51.110;-4.158;2022-11-14T10:13:24;5.33;;;1.23;;
17648;SDS011;8943;51.110;-4.158;2022-11-14T10:16:09;9.00;;;1.40;;
17648;SDS011;8943;51.110;-4.158;2022-11-14T10:18:57;2.47;;;0.90;;
17648;SDS011;8943;51.110;-4.158;2022-11-14T10:21:45;11.43;;;1.20;;
17648;SDS011;8943;51.110;-4.158;2022-11-14T10:24:31;5.37;;;1.10;;
17648;SDS011;8943;51.110;-4.158;2022-11-14T10:27:17;4.67;;;1.10;;
17648;SDS011;8943;51.110;-4.158;2022-11-14T10:30:06;8.13;;;1.50;;
17648;SDS011;8943;51.110;-4.158;2022-11-14T10:32:43;8.53;;;1.17;;
17648;SDS011;8943;51.110;-4.158;2022-11-14T10:35:49;6.27;;;1.17;;
17648;SDS011;8943;51.110;-4.158;2022-11-14T10:38:34;6.53;;;1.10;;
17648;SDS011;8943;51.110;-4.158;2022-11-14T10:41:23;12.53;;;2.20;;
17648;SDS011;8943;51.110;-4.158;2022-11-14T10:44:21;3.23;;;1.10;;
17648;SDS011;8943;51.110;-4.158;2022-11-14T10:46:54;9.77;;;1.27;;
17648;SDS011;8943;51.110;-4.158;2022-11-14T10:49:34;7.53;;;1.00;;
17648;SDS011;8943;51.110;-4.158;2022-11-14T10:52:14;3.47;;;1.17;;
17648;SDS011;8943;51.110;-4.158;2022-11-14T10:54:49;4.03;;;1.00;;
17648;SDS011;8943;51.110;-4.158;2022-11-14T10:57:26;4.37;;;0.93;;
17648;SDS011;8943;51.110;-4.158;2022-11-14T10:59:57;5.03;;;1.23;;
17648;SDS011;8943;51.110;-4.158;2022-11-14T11:02:45;4.67;;;1.37;;
17648;SDS011;8943;51.110;-4.158;2022-11-14T11:05:21;11.77;;;1.50;;
17648;SDS011;8943;51.110;-4.158;2022-11-14T11:07:51;7.90;;;1.17;;
17648;SDS011;8943;51.110;-4.158;2022-11-14T11:11:06;6.63;;;1.03;;
17648;SDS011;8943;51.110;-4.158;2022-11-14T11:14:00;13.83;;;2.83;;
17648;SDS011;8943;51.110;-4.158;2022-11-14T11:16:29;12.07;;;1.60;;
17648;SDS011;8943;51.110;-4.158;2022-11-14T11:19:14;3.30;;;0.70;;
17648;SDS011;8943;51.110;-4.158;2022-11-14T11:21:52;7.03;;;1.43;;
17648;SDS011;8943;51.110;-4.158;2022-11-14T11:24:29;3.50;;;0.90;;
17648;SDS011;8943;51.110;-4.158;2022-11-14T11:27:17;10.57;;;1.13;;
17648;SDS011;8943;51.110;-4.158;2022-11-14T11:30:01;6.27;;;1.63;;
17648;SDS011;8943;51.110;-4.158;2022-11-14T11:32:35;3.57;;;1.33;;
17648;SDS011;8943;51.110;-4.158;2022-11-14T11:35:08;8.53;;;1.30;;
17648;SDS011;8943;51.110;-4.158;2022-11-14T11:37:41;5.57;;;1.60;;
17648;SDS011;8943;51.110;-4.158;2022-11-14T11:40:16;4.13;;;1.50;;
17648;SDS011;8943;51.110;-4.158;2022-11-14T11:42:52;9.17;;;2.20;;
17648;SDS011;8943;51.110;-4.158;2022-11-14T11:45:46;7.50;;;2.37;;
17648;SDS011;8943;51.110;-4.158;2022-11-14T11:48:17;9.00;;;1.83;;
17648;SDS011;8943;51.110;-4.158;2022-11-14T11:50:48;8.00;;;1.50;;
17648;SDS011;8943;51.110;-4.158;2022-11-14T11:53:17;8.53;;;1.80;;
17648;SDS011;8943;51.110;-4.158;2022-11-14T11:55:59;6.83;;;1.50;;
17648;SDS011;8943;51.110;-4.158;2022-11-14T11:58:42;5.73;;;1.53;;
17648;SDS011;8943;51.110;-4.158;2022-11-14T12:01:13;4.93;;;1.50;;
17648;SDS011;8943;51.110;-4.158;2022-11-14T12:03:46;5.53;;;1.43;;
17648;SDS011;8943;51.110;-4.158;2022-11-14T12:06:18;10.13;;;1.27;;
17648;SDS011;8943;51.110;-4.158;2022-11-14T12:08:55;6.70;;;1.27;;
17648;SDS011;8943;51.110;-4.158;2022-11-14T12:11:32;7.40;;;1.30;;
17648;SDS011;8943;51.110;-4.158;2022-11-14T12:14:34;4.53;;;1.00;;
17648;SDS011;8943;51.110;-4.158;2022-11-14T12:17:18;7.00;;;1.10;;
17648;SDS011;8943;51.110;-4.158;2022-11-14T12:20:10;5.07;;;1.20;;
17648;SDS011;8943;51.110;-4.158;2022-11-14T12:26:21;4.47;;;1.33;;
17648;SDS011;8943;51.110;-4.158;2022-11-14T12:29:23;2.73;;;1.00;;
17648;SDS011;8943;51.110;-4.158;2022-11-14T12:32:04;4.13;;;1.00;;
17648;SDS011;8943;51.110;-4.158;2022-11-14T12:34:36;3.93;;;0.73;;
17648;SDS011;8943;51.110;-4.158;2022-11-14T12:37:09;3.40;;;0.77;;
17648;SDS011;8943;51.110;-4.158;2022-11-14T12:39:53;4.90;;;0.93;;
17648;SDS011;8943;51.110;-4.158;2022-11-14T12:42:25;4.87;;;0.70;;
17648;SDS011;8943;51.110;-4.158;2022-11-14T12:44:53;3.13;;;1.00;;
17648;SDS011;8943;51.110;-4.158;2022-11-14T12:47:28;3.70;;;1.00;;
17648;SDS011;8943;51.110;-4.158;2022-11-14T12:52:56;6.47;;;0.87;;
17648;SDS011;8943;51.110;-4.158;2022-11-14T13:01:39;5.60;;;1.40;;
17648;SDS011;8943;51.110;-4.158;2022-11-14T13:04:30;4.80;;;0.90;;
17648;SDS011;8943;51.110;-4.158;2022-11-14T13:07:10;8.37;;;1.10;;
17648;SDS011;8943;51.110;-4.158;2022-11-14T13:10:11;4.93;;;0.80;;
17648;SDS011;8943;51.110;-4.158;2022-11-14T13:12:47;7.27;;;1.10;;
17648;SDS011;8943;51.110;-4.158;2022-11-14T13:15:46;8.50;;;1.07;;
17648;SDS011;8943;51.110;-4.158;2022-11-14T13:18:53;6.33;;;1.30;;
17648;SDS011;8943;51.110;-4.158;2022-11-14T13:25:17;2.83;;;0.83;;
17648;SDS011;8943;51.110;-4.158;2022-11-14T13:27:50;2.27;;;0.70;;
17648;SDS011;8943;51.110;-4.158;2022-11-14T13:33:39;6.20;;;0.70;;
17648;SDS011;8943;51.110;-4.158;2022-11-14T13:36:16;3.90;;;0.93;;
17648;SDS011;8943;51.110;-4.158;2022-11-14T13:51:14;5.50;;;1.30;;
17648;SDS011;8943;51.110;-4.158;2022-11-14T13:54:23;6.93;;;0.60;;
17648;SDS011;8943;51.110;-4.158;2022-11-14T13:56:57;3.17;;;0.73;;
17648;SDS011;8943;51.110;-4.158;2022-11-14T13:59:39;10.47;;;1.07;;
17648;SDS011;8943;51.110;-4.158;2022-11-14T14:02:25;6.27;;;1.30;;
17648;SDS011;8943;51.110;-4.158;2022-11-14T14:05:25;3.80;;;1.00;;
17648;SDS011;8943;51.110;-4.158;2022-11-14T14:08:26;7.37;;;0.90;;
17648;SDS011;8943;51.110;-4.158;2022-11-14T14:14:27;6.43;;;0.87;;
17648;SDS011;8943;51.110;-4.158;2022-11-14T14:17:16;5.63;;;0.70;;
17648;SDS011;8943;51.110;-4.158;2022-11-14T14:20:16;4.27;;;0.97;;
17648;SDS011;8943;51.110;-4.158;2022-11-14T14:22:56;7.67;;;1.20;;
17648;SDS011;8943;51.110;-4.158;2022-11-14T14:25:31;2.63;;;0.50;;
17648;SDS011;8943;51.110;-4.158;2022-11-14T14:28:10;3.20;;;0.90;;
17648;SDS011;8943;51.110;-4.158;2022-11-14T14:31:00;4.77;;;1.07;;
17648;SDS011;8943;51.110;-4.158;2022-11-14T14:33:42;2.20;;;0.70;;
17648;SDS011;8943;51.110;-4.158;2022-11-14T14:36:17;4.20;;;1.20;;
17648;SDS011;8943;51.110;-4.158;2022-11-14T14:39:13;4.60;;;1.03;;
17648;SDS011;8943;51.110;-4.158;2022-11-14T14:41:44;3.17;;;1.00;;
17648;SDS011;8943;51.110;-4.158;2022-11-14T14:44:19;5.83;;;1.07;;
17648;SDS011;8943;51.110;-4.158;2022-11-14T14:46:55;9.33;;;0.63;;
17648;SDS011;8943;51.110;-4.158;2022-11-14T14:49:25;7.87;;;0.90;;
17648;SDS011;8943;51.110;-4.158;2022-11-14T14:51:57;6.10;;;1.63;;
17648;SDS011;8943;51.110;-4.158;2022-11-14T14:54:27;5.10;;;0.90;;
17648;SDS011;8943;51.110;-4.158;2022-11-14T14:56:58;5.80;;;1.20;;
17648;SDS011;8943;51.110;-4.158;2022-11-14T14:59:30;5.33;;;1.00;;
17648;SDS011;8943;51.110;-4.158;2022-11-14T15:02:01;6.27;;;1.50;;
17648;SDS011;8943;51.110;-4.158;2022-11-14T15:04:30;10.27;;;1.07;;
17648;SDS011;8943;51.110;-4.158;2022-11-14T15:07:02;7.60;;;1.30;;
17648;SDS011;8943;51.110;-4.158;2022-11-14T15:09:31;10.97;;;1.70;;
17648;SDS011;8943;51.110;-4.158;2022-11-14T15:12:00;12.53;;;2.10;;
17648;SDS011;8943;51.110;-4.158;2022-11-14T15:14:31;9.67;;;1.40;;
17648;SDS011;8943;51.110;-4.158;2022-11-14T15:17:16;14.70;;;2.00;;
17648;SDS011;8943;51.110;-4.158;2022-11-14T15:19:44;7.37;;;1.50;;
17648;SDS011;8943;51.110;-4.158;2022-11-14T15:22:24;13.23;;;1.70;;
17648;SDS011;8943;51.110;-4.158;2022-11-14T15:27:49;10.70;;;1.60;;
17648;SDS011;8943;51.110;-4.158;2022-11-14T15:30:23;8.93;;;1.97;;
17648;SDS011;8943;51.110;-4.158;2022-11-14T15:32:56;6.60;;;1.60;;
17648;SDS011;8943;51.110;-4.158;2022-11-14T15:35:27;7.63;;;1.53;;
17648;SDS011;8943;51.110;-4.158;2022-11-14T15:38:03;5.80;;;1.30;;
17648;SDS011;8943;51.110;-4.158;2022-11-14T15:43:56;11.80;;;1.87;;
17648;SDS011;8943;51.110;-4.158;2022-11-14T15:46:41;11.03;;;2.00;;
17648;SDS011;8943;51.110;-4.158;2022-11-14T15:49:25;4.67;;;1.03;;
17648;SDS011;8943;51.110;-4.158;2022-11-14T15:51:56;9.37;;;1.70;;
17648;SDS011;8943;51.110;-4.158;2022-11-14T15:54:32;7.07;;;1.27;;
17648;SDS011;8943;51.110;-4.158;2022-11-14T15:57:07;5.47;;;1.20;;
17648;SDS011;8943;51.110;-4.158;2022-11-14T15:59:51;10.23;;;1.73;;
17648;SDS011;8943;51.110;-4.158;2022-11-14T16:02:24;8.00;;;1.73;;
17648;SDS011;8943;51.110;-4.158;2022-11-14T16:04:58;6.80;;;1.80;;
17648;SDS011;8943;51.110;-4.158;2022-11-14T16:07:34;9.37;;;2.07;;
17648;SDS011;8943;51.110;-4.158;2022-11-14T16:10:11;8.60;;;1.83;;
17648;SDS011;8943;51.110;-4.158;2022-11-14T16:12:55;9.03;;;1.50;;
17648;SDS011;8943;51.110;-4.158;2022-11-14T16:15:24;9.93;;;2.00;;
17648;SDS011;8943;51.110;-4.158;2022-11-14T16:18:06;7.13;;;1.80;;
17648;SDS011;8943;51.110;-4.158;2022-11-14T16:20:41;6.03;;;2.13;;
17648;SDS011;8943;51.110;-4.158;2022-11-14T16:23:17;9.47;;;1.60;;
17648;SDS011;8943;51.110;-4.158;2022-11-14T16:25:48;5.67;;;1.67;;
17648;SDS011;8943;51.110;-4.158;2022-11-14T16:28:22;10.93;;;1.93;;
17648;SDS011;8943;51.110;-4.158;2022-11-14T16:31:13;10.00;;;2.13;;
17648;SDS011;8943;51.110;-4.158;2022-11-14T16:33:48;11.53;;;3.83;;
17648;SDS011;8943;51.110;-4.158;2022-11-14T16:39:33;14.23;;;5.73;;
17648;SDS011;8943;51.110;-4.158;2022-11-14T16:42:34;16.07;;;5.17;;
17648;SDS011;8943;51.110;-4.158;2022-11-14T16:48:02;9.63;;;2.23;;
17648;SDS011;8943;51.110;-4.158;2022-11-14T17:05:03;12.13;;;3.23;;
17648;SDS011;8943;51.110;-4.158;2022-11-14T17:07:46;6.40;;;3.07;;
17648;SDS011;8943;51.110;-4.158;2022-11-14T17:10:15;12.93;;;3.93;;
17648;SDS011;8943;51.110;-4.158;2022-11-14T17:12:46;7.17;;;2.90;;
17648;SDS011;8943;51.110;-4.158;2022-11-14T17:15:15;9.30;;;3.60;;
17648;SDS011;8943;51.110;-4.158;2022-11-14T17:17:43;10.07;;;3.57;;
17648;SDS011;8943;51.110;-4.158;2022-11-14T17:20:17;8.73;;;3.80;;
17648;SDS011;8943;51.110;-4.158;2022-11-14T17:22:49;10.63;;;3.17;;
17648;SDS011;8943;51.110;-4.158;2022-11-14T17:25:50;6.20;;;2.50;;
17648;SDS011;8943;51.110;-4.158;2022-11-14T17:29:07;4.80;;;2.30;;
17648;SDS011;8943;51.110;-4.158;2022-11-14T17:32:09;11.70;;;2.73;;
17648;SDS011;8943;51.110;-4.158;2022-11-14T17:37:58;6.23;;;2.30;;
17648;SDS011;8943;51.110;-4.158;2022-11-14T17:41:00;7.70;;;2.53;;
17648;SDS011;8943;51.110;-4.158;2022-11-14T17:44:10;5.57;;;2.60;;
17648;SDS011;8943;51.110;-4.158;2022-11-14T17:47:27;5.47;;;2.00;;
17648;SDS011;8943;51.110;-4.158;2022-11-14T17:53:14;5.00;;;2.07;;
17648;SDS011;8943;51.110;-4.158;2022-11-14T17:56:10;10.90;;;3.23;;
17648;SDS011;8943;51.110;-4.158;2022-11-14T17:58:43;6.53;;;2.40;;
17648;SDS011;8943;51.110;-4.158;2022-11-14T18:01:13;5.63;;;2.00;;
17648;SDS011;8943;51.110;-4.158;2022-11-14T18:03:43;6.63;;;2.17;;
17648;SDS011;8943;51.110;-4.158;2022-11-14T18:06:13;9.37;;;1.97;;
17648;SDS011;8943;51.110;-4.158;2022-11-14T18:08:44;7.50;;;2.30;;
17648;SDS011;8943;51.110;-4.158;2022-11-14T18:11:13;9.30;;;3.20;;
17648;SDS011;8943;51.110;-4.158;2022-11-14T18:13:43;11.27;;;2.43;;
17648;SDS011;8943;51.110;-4.158;2022-11-14T18:16:12;13.80;;;3.17;;
17648;SDS011;8943;51.110;-4.158;2022-11-14T18:18:42;7.20;;;2.83;;
17648;SDS011;8943;51.110;-4.158;2022-11-14T18:21:34;7.60;;;2.67;;
17648;SDS011;8943;51.110;-4.158;2022-11-14T18:24:17;9.40;;;2.57;;
17648;SDS011;8943;51.110;-4.158;2022-11-14T18:26:47;12.17;;;3.10;;
17648;SDS011;8943;51.110;-4.158;2022-11-14T18:29:15;7.53;;;2.37;;
17648;SDS011;8943;51.110;-4.158;2022-11-14T18:31:43;9.57;;;2.73;;
17648;SDS011;8943;51.110;-4.158;2022-11-14T18:34:13;9.30;;;2.90;;
17648;SDS011;8943;51.110;-4.158;2022-11-14T18:36:44;11.53;;;3.30;;
17648;SDS011;8943;51.110;-4.158;2022-11-14T18:39:12;6.83;;;2.20;;
17648;SDS011;8943;51.110;-4.158;2022-11-14T18:41:41;7.33;;;2.13;;
17648;SDS011;8943;51.110;-4.158;2022-11-14T18:44:11;10.03;;;2.30;;
17648;SDS011;8943;51.110;-4.158;2022-11-14T18:46:40;3.37;;;1.37;;
17648;SDS011;8943;51.110;-4.158;2022-11-14T18:54:43;7.97;;;3.00;;
17648;SDS011;8943;51.110;-4.158;2022-11-14T18:57:13;9.43;;;3.00;;
17648;SDS011;8943;51.110;-4.158;2022-11-14T18:59:42;7.77;;;2.50;;
17648;SDS011;8943;51.110;-4.158;2022-11-14T19:02:11;6.83;;;2.30;;
17648;SDS011;8943;51.110;-4.158;2022-11-14T19:04:40;10.20;;;3.30;;
17648;SDS011;8943;51.110;-4.158;2022-11-14T19:07:10;8.60;;;2.77;;
17648;SDS011;8943;51.110;-4.158;2022-11-14T19:09:50;8.43;;;2.40;;
17648;SDS011;8943;51.110;-4.158;2022-11-14T19:12:19;6.17;;;2.57;;
17648;SDS011;8943;51.110;-4.158;2022-11-14T19:14:49;6.77;;;2.90;;
17648;SDS011;8943;51.110;-4.158;2022-11-14T19:17:19;9.07;;;2.50;;
17648;SDS011;8943;51.110;-4.158;2022-11-14T19:19:48;9.23;;;3.10;;
17648;SDS011;8943;51.110;-4.158;2022-11-14T19:22:23;11.00;;;2.80;;
17648;SDS011;8943;51.110;-4.158;2022-11-14T19:24:53;11.07;;;3.17;;
17648;SDS011;8943;51.110;-4.158;2022-11-14T19:27:23;10.37;;;3.03;;
17648;SDS011;8943;51.110;-4.158;2022-11-14T19:30:06;9.93;;;2.20;;
17648;SDS011;8943;51.110;-4.158;2022-11-14T19:32:36;6.47;;;2.20;;
17648;SDS011;8943;51.110;-4.158;2022-11-14T19:35:05;13.70;;;4.10;;
17648;SDS011;8943;51.110;-4.158;2022-11-14T19:40:48;7.77;;;2.17;;
17648;SDS011;8943;51.110;-4.158;2022-11-14T19:43:18;7.77;;;2.23;;
17648;SDS011;8943;51.110;-4.158;2022-11-14T19:45:48;8.63;;;2.20;;
17648;SDS011;8943;51.110;-4.158;2022-11-14T19:48:17;6.23;;;2.13;;
17648;SDS011;8943;51.110;-4.158;2022-11-14T19:50:45;8.20;;;2.50;;
17648;SDS011;8943;51.110;-4.158;2022-11-14T19:53:14;5.77;;;2.53;;
17648;SDS011;8943;51.110;-4.158;2022-11-14T19:55:43;7.23;;;2.60;;
17648;SDS011;8943;51.110;-4.158;2022-11-14T19:58:11;6.70;;;2.40;;
17648;SDS011;8943;51.110;-4.158;2022-11-14T20:00:40;3.63;;;1.60;;
17648;SDS011;8943;51.110;-4.158;2022-11-14T20:03:09;10.10;;;2.00;;
17648;SDS011;8943;51.110;-4.158;2022-11-14T20:05:38;6.67;;;1.50;;
17648;SDS011;8943;51.110;-4.158;2022-11-14T20:08:07;9.33;;;1.83;;
17648;SDS011;8943;51.110;-4.158;2022-11-14T20:10:37;8.53;;;3.50;;
17648;SDS011;8943;51.110;-4.158;2022-11-14T20:13:16;7.53;;;2.60;;
17648;SDS011;8943;51.110;-4.158;2022-11-14T20:15:45;12.50;;;6.13;;
17648;SDS011;8943;51.110;-4.158;2022-11-14T20:18:15;8.47;;;3.13;;
17648;SDS011;8943;51.110;-4.158;2022-11-14T20:20:44;6.27;;;2.43;;
17648;SDS011;8943;51.110;-4.158;2022-11-14T20:23:12;7.47;;;3.03;;
17648;SDS011;8943;51.110;-4.158;2022-11-14T20:25:44;9.83;;;3.80;;
17648;SDS011;8943;51.110;-4.158;2022-11-14T20:28:19;9.30;;;2.87;;
17648;SDS011;8943;51.110;-4.158;2022-11-14T20:30:48;14.53;;;6.47;;
17648;SDS011;8943;51.110;-4.158;2022-11-14T20:33:17;13.33;;;8.07;;
17648;SDS011;8943;51.110;-4.158;2022-11-14T20:35:46;9.60;;;2.90;;
17648;SDS011;8943;51.110;-4.158;2022-11-14T20:38:14;4.93;;;2.20;;
17648;SDS011;8943;51.110;-4.158;2022-11-14T20:40:49;5.93;;;2.27;;
17648;SDS011;8943;51.110;-4.158;2022-11-14T20:43:20;5.97;;;2.00;;
17648;SDS011;8943;51.110;-4.158;2022-11-14T20:45:55;10.50;;;2.63;;
17648;SDS011;8943;51.110;-4.158;2022-11-14T20:48:24;9.13;;;2.60;;
17648;SDS011;8943;51.110;-4.158;2022-11-14T20:51:00;10.60;;;2.40;;
17648;SDS011;8943;51.110;-4.158;2022-11-14T20:53:30;10.40;;;3.23;;
17648;SDS011;8943;51.110;-4.158;2022-11-14T20:56:01;11.97;;;2.10;;
17648;SDS011;8943;51.110;-4.158;2022-11-14T20:58:30;6.27;;;2.60;;
17648;SDS011;8943;51.110;-4.158;2022-11-14T21:00:59;7.47;;;1.97;;
17648;SDS011;8943;51.110;-4.158;2022-11-14T21:03:27;7.37;;;2.07;;
17648;SDS011;8943;51.110;-4.158;2022-11-14T21:05:56;8.53;;;2.33;;
17648;SDS011;8943;51.110;-4.158;2022-11-14T21:08:26;11.23;;;3.23;;
17648;SDS011;8943;51.110;-4.158;2022-11-14T21:10:57;8.73;;;2.63;;
17648;SDS011;8943;51.110;-4.158;2022-11-14T21:13:28;10.27;;;2.33;;
17648;SDS011;8943;51.110;-4.158;2022-11-14T21:16:14;9.77;;;2.50;;
17648;SDS011;8943;51.110;-4.158;2022-11-14T21:24:18;11.27;;;2.40;;
17648;SDS011;8943;51.110;-4.158;2022-11-14T21:26:47;10.57;;;2.53;;
17648;SDS011;8943;51.110;-4.158;2022-11-14T21:29:19;10.40;;;2.23;;
17648;SDS011;8943;51.110;-4.158;2022-11-14T21:31:47;6.93;;;2.20;;
17648;SDS011;8943;51.110;-4.158;2022-11-14T21:34:16;4.10;;;1.57;;
17648;SDS011;8943;51.110;-4.158;2022-11-14T21:36:44;8.67;;;1.73;;
17648;SDS011;8943;51.110;-4.158;2022-11-14T21:39:14;12.37;;;1.80;;
17648;SDS011;8943;51.110;-4.158;2022-11-14T21:42:07;6.93;;;1.77;;